Tilton, South Dakota
Current Conditions -  °F | °C
As of 10:15 AM on Thursday 18 Dec 2014 (Local Time) from KSPF Reporting Station
Clear Clear  
Wind Chill: -1°   Ceiling: Unl
Heat Index:   Visibility: 10mi
Dew Point: -3°   Wind: 7mph
Humidity: 70%   Direction: 260°W
Pressure: 29.99"   Gusts: NA
Location:  44.253°N, 103.912°W
Report Text: KSPF 181715Z AUTO 26006KT 10SM CLR 02/M03 A2999 RMK AO2
Loading
Personal Weather Stations






























Interactive Weather Map New forecast layout! Learn more

10-Day Weather Forecast

Advertisements
Track Severe Weather on mobile